createdAt,value
2022-08-22T00:01:36.468Z,10.98
2022-08-22T00:02:58.379Z,15.55
2022-08-22T00:03:15.427Z,11.30
2022-08-22T00:04:09.138Z,10.77
2022-08-22T00:06:42.030Z,10.58
2022-08-22T00:09:48.839Z,11.06
2022-08-22T00:12:23.388Z,11.06
2022-08-22T00:15:07.621Z,11.33
2022-08-22T00:17:51.493Z,11.49
2022-08-22T00:20:28.343Z,11.58
2022-08-22T00:22:59.804Z,11.26
2022-08-22T00:25:42.572Z,11.54
2022-08-22T00:28:23.254Z,11.58
2022-08-22T00:31:21.078Z,11.42
2022-08-22T00:33:53.434Z,11.55
2022-08-22T00:36:25.096Z,11.59
2022-08-22T00:39:47.826Z,11.53
2022-08-22T00:42:31.708Z,11.05
2022-08-22T00:45:17.879Z,10.89
2022-08-22T00:48:09.190Z,10.82
2022-08-22T00:50:51.301Z,10.71
2022-08-22T00:53:39.613Z,11.01
2022-08-22T00:56:21.721Z,10.88
2022-08-22T00:58:57.552Z,10.70
2022-08-22T01:01:34.727Z,10.57
2022-08-22T01:04:33.223Z,10.53
2022-08-22T01:07:03.249Z,10.63
2022-08-22T01:09:45.284Z,10.86
2022-08-22T01:12:32.874Z,11.06
2022-08-22T01:15:09.611Z,10.48
2022-08-22T01:17:39.361Z,9.95
2022-08-22T01:21:03.284Z,10.22
2022-08-22T01:23:40.468Z,10.12
2022-08-22T01:26:44.928Z,10.45
2022-08-22T01:29:28.607Z,10.22
2022-08-22T01:32:01.645Z,10.47
2022-08-22T01:34:53.304Z,10.56
2022-08-22T01:37:26.079Z,10.65
2022-08-22T01:39:55.947Z,10.75
2022-08-22T01:42:41.839Z,10.53
2022-08-22T01:45:08.840Z,10.43
2022-08-22T01:47:40.649Z,10.32
2022-08-22T01:50:56.926Z,10.50
2022-08-22T01:53:25.246Z,10.66
2022-08-22T01:56:07.473Z,10.74
2022-08-22T01:58:36.672Z,10.52
2022-08-22T02:01:06.284Z,10.46
2022-08-22T02:03:43.142Z,10.57
2022-08-22T02:06:25.053Z,10.61
2022-08-22T02:09:27.310Z,10.67
2022-08-22T02:12:05.529Z,10.79
2022-08-22T02:14:51.385Z,10.28
2022-08-22T02:17:35.812Z,10.65
2022-08-22T02:20:20.393Z,10.84
2022-08-22T02:23:13.496Z,10.74
2022-08-22T02:25:51.480Z,10.47
2022-08-22T02:28:38.532Z,10.54
2022-08-22T02:31:21.968Z,10.42
2022-08-22T02:34:01.387Z,10.56
2022-08-22T02:36:45.564Z,10.72
2022-08-22T02:39:34.083Z,10.73
2022-08-22T02:42:27.894Z,10.30
2022-08-22T02:45:03.705Z,10.09
2022-08-22T02:47:41.226Z,10.05
2022-08-22T02:50:19.703Z,10.45
2022-08-22T02:52:52.835Z,10.32
2022-08-22T02:55:54.940Z,9.98
2022-08-22T02:58:31.118Z,10.18
2022-08-22T03:00:57.908Z,10.22
2022-08-22T03:03:31.807Z,10.30
2022-08-22T03:06:28.195Z,10.58
2022-08-22T03:09:07.219Z,10.53
2022-08-22T03:11:37.748Z,10.35
2022-08-22T03:14:16.737Z,10.27
2022-08-22T03:16:50.830Z,9.95
2022-08-22T03:19:20.458Z,10.18
2022-08-22T03:21:50.395Z,10.50
2022-08-22T03:24:24.779Z,10.52
2022-08-22T03:27:06.559Z,10.48
2022-08-22T03:29:37.086Z,10.48
2022-08-22T03:32:16.801Z,10.37
2022-08-22T03:34:55.951Z,10.14
2022-08-22T03:37:32.052Z,10.24
2022-08-22T03:40:35.292Z,10.33
2022-08-22T03:43:30.144Z,9.88
2022-08-22T03:46:18.795Z,9.81
2022-08-22T03:49:17.687Z,10.07
2022-08-22T03:51:53.648Z,9.70
2022-08-22T03:54:38.927Z,9.77
2022-08-22T03:57:29.809Z,9.93
2022-08-22T03:59:56.668Z,9.80
2022-08-22T04:02:50.115Z,9.84
2022-08-22T04:05:20.017Z,9.63
2022-08-22T04:08:00.211Z,9.37
2022-08-22T04:10:27.157Z,9.66
2022-08-22T04:12:53.904Z,10.00
2022-08-22T04:15:57.441Z,10.18
2022-08-22T04:18:28.459Z,10.15
2022-08-22T04:21:18.250Z,10.06
2022-08-22T04:24:09.724Z,10.32
2022-08-22T04:26:48.829Z,10.13
2022-08-22T04:29:22.571Z,10.07
2022-08-22T04:32:18.496Z,10.03
2022-08-22T04:34:56.287Z,9.98
2022-08-22T04:37:26.228Z,10.07
2022-08-22T04:40:00.583Z,10.14
2022-08-22T04:42:42.072Z,10.31
2022-08-22T04:45:23.181Z,10.17
2022-08-22T04:47:56.533Z,9.93
2022-08-22T04:50:31.263Z,9.61
2022-08-22T04:53:12.431Z,9.77
2022-08-22T04:55:55.907Z,9.97
2022-08-22T04:58:22.549Z,9.89
2022-08-22T05:00:52.399Z,9.81
2022-08-22T05:03:19.143Z,9.87
2022-08-22T05:05:45.915Z,9.87
2022-08-22T05:08:13.749Z,9.86
2022-08-22T05:10:41.630Z,9.84
2022-08-22T05:13:11.263Z,9.89
2022-08-22T05:15:39.144Z,9.84
2022-08-22T05:18:07.388Z,9.64
2022-08-22T05:20:34.097Z,9.66
2022-08-22T05:23:03.036Z,9.65
2022-08-22T05:25:34.705Z,9.66
2022-08-22T05:28:12.043Z,9.50
2022-08-22T05:30:38.986Z,9.85
2022-08-22T05:33:05.585Z,9.83
2022-08-22T05:35:49.255Z,9.72
2022-08-22T05:38:18.040Z,10.01
2022-08-22T05:40:44.841Z,9.90
2022-08-22T05:43:12.173Z,9.89
2022-08-22T05:45:39.217Z,10.05
2022-08-22T05:48:07.903Z,10.34
2022-08-22T05:50:37.026Z,10.41
2022-08-22T05:53:15.191Z,10.42
2022-08-22T05:55:41.944Z,10.39
2022-08-22T05:58:20.717Z,10.20
2022-08-22T06:00:49.793Z,9.91
2022-08-22T06:03:31.411Z,10.19
2022-08-22T06:05:58.916Z,10.62
2022-08-22T06:08:35.146Z,10.67
2022-08-22T06:11:17.385Z,10.75
2022-08-22T06:14:08.044Z,10.58
2022-08-22T06:16:37.560Z,10.72
2022-08-22T06:19:04.208Z,10.76
2022-08-22T06:21:47.076Z,10.85
2022-08-22T06:24:16.291Z,10.89
2022-08-22T06:26:48.227Z,10.97
2022-08-22T06:29:27.750Z,11.00
2022-08-22T06:31:54.586Z,10.78
2022-08-22T06:34:23.931Z,10.88
2022-08-22T06:36:50.959Z,11.15
2022-08-22T06:39:24.991Z,11.07
2022-08-22T06:42:04.986Z,11.16
2022-08-22T06:44:33.334Z,11.19
2022-08-22T06:47:01.059Z,11.21
2022-08-22T06:49:28.023Z,11.36
2022-08-22T06:51:57.640Z,11.36
2022-08-22T06:54:24.927Z,11.36
2022-08-22T06:56:52.033Z,11.66
2022-08-22T06:59:20.016Z,11.55
2022-08-22T07:02:07.133Z,11.57
2022-08-22T07:04:33.969Z,11.38
2022-08-22T07:07:00.860Z,11.35
2022-08-22T07:09:37.519Z,11.44
2022-08-22T07:12:08.783Z,11.58
2022-08-22T07:14:45.629Z,11.55
2022-08-22T07:17:17.376Z,11.57
2022-08-22T07:19:48.099Z,11.59
2022-08-22T07:22:26.081Z,11.62
2022-08-22T07:24:55.709Z,11.76
2022-08-22T07:27:31.884Z,11.91
2022-08-22T07:30:10.199Z,11.97
2022-08-22T07:32:57.885Z,12.25
2022-08-22T07:35:53.372Z,12.26
2022-08-22T07:38:42.860Z,12.29
2022-08-22T07:41:18.092Z,12.43
2022-08-22T07:43:45.935Z,12.68
2022-08-22T07:46:25.809Z,12.80
2022-08-22T07:49:09.224Z,12.76
2022-08-22T07:51:41.667Z,12.91
2022-08-22T07:54:09.549Z,12.90
2022-08-22T07:56:44.089Z,13.01
2022-08-22T07:59:14.376Z,13.09
2022-08-22T08:01:49.089Z,13.12
2022-08-22T08:04:17.789Z,13.19
2022-08-22T08:06:46.623Z,13.40
2022-08-22T08:09:15.059Z,13.50
2022-08-22T08:11:42.268Z,13.33
2022-08-22T08:14:09.095Z,13.45
2022-08-22T08:17:00.737Z,13.75
2022-08-22T08:19:27.488Z,13.91
2022-08-22T08:21:54.881Z,14.10
2022-08-22T08:24:43.342Z,14.00
2022-08-22T08:27:50.526Z,14.30
2022-08-22T08:30:19.431Z,14.25
2022-08-22T08:32:54.057Z,14.44
2022-08-22T08:35:42.389Z,14.42
2022-08-22T08:38:23.626Z,14.54
2022-08-22T08:40:56.408Z,14.61
2022-08-22T08:43:41.789Z,14.63
2022-08-22T08:46:11.457Z,14.78
2022-08-22T08:48:52.547Z,15.05
2022-08-22T08:51:25.290Z,15.30
2022-08-22T08:54:10.532Z,15.32
2022-08-22T08:56:37.198Z,15.28
2022-08-22T08:59:10.508Z,15.24
2022-08-22T09:01:46.271Z,15.32
2022-08-22T09:04:24.998Z,15.31
2022-08-22T09:07:03.871Z,15.43
2022-08-22T09:09:31.924Z,15.49
2022-08-22T09:12:01.681Z,15.58
2022-08-22T09:14:28.470Z,15.68
2022-08-22T09:16:58.146Z,15.86
2022-08-22T09:19:43.496Z,15.91
2022-08-22T09:22:30.049Z,15.87
2022-08-22T09:25:15.335Z,15.82
2022-08-22T09:27:42.715Z,16.02
2022-08-22T09:30:11.568Z,16.10
2022-08-22T09:32:44.114Z,16.16
2022-08-22T09:35:20.102Z,16.10
2022-08-22T09:38:07.590Z,16.11
2022-08-22T09:40:39.950Z,16.14
2022-08-22T09:43:21.453Z,16.29
2022-08-22T09:46:07.912Z,16.38
2022-08-22T09:48:39.612Z,16.51
2022-08-22T09:51:32.655Z,16.60
2022-08-22T09:54:31.371Z,16.79
2022-08-22T09:57:00.823Z,16.99
2022-08-22T09:59:35.132Z,17.06
2022-08-22T10:02:15.294Z,17.31
2022-08-22T10:04:45.952Z,17.39
2022-08-22T10:07:31.162Z,17.47
2022-08-22T10:10:01.319Z,17.51
2022-08-22T10:12:35.172Z,17.50
2022-08-22T10:15:16.208Z,17.35
2022-08-22T10:18:00.244Z,17.47
2022-08-22T10:21:02.620Z,17.38
2022-08-22T10:23:37.937Z,17.49
2022-08-22T10:26:38.623Z,17.44
2022-08-22T10:29:24.375Z,17.23
2022-08-22T10:31:58.719Z,17.24
2022-08-22T10:34:31.077Z,16.86
2022-08-22T10:37:03.985Z,17.11
2022-08-22T10:39:58.458Z,16.95
2022-08-22T10:42:27.985Z,17.09
2022-08-22T10:45:00.918Z,17.15
2022-08-22T10:47:30.973Z,17.09
2022-08-22T10:50:10.884Z,17.14
2022-08-22T10:52:46.115Z,17.39
2022-08-22T10:55:26.672Z,17.50
2022-08-22T10:57:53.650Z,17.79
2022-08-22T11:00:31.257Z,17.95
2022-08-22T11:03:04.823Z,18.17
2022-08-22T11:05:48.874Z,18.23
2022-08-22T11:08:35.956Z,18.42
2022-08-22T11:11:12.974Z,18.40
2022-08-22T11:13:42.319Z,18.60
2022-08-22T11:16:28.522Z,18.50
2022-08-22T11:19:02.576Z,18.61
2022-08-22T11:21:29.740Z,18.58
2022-08-22T11:24:02.410Z,18.53
2022-08-22T11:26:47.500Z,18.58
2022-08-22T11:29:14.894Z,18.26
2022-08-22T11:31:51.958Z,18.39
2022-08-22T11:34:38.275Z,18.31
2022-08-22T11:37:17.481Z,18.28
2022-08-22T11:39:47.168Z,18.24
2022-08-22T11:42:29.724Z,18.38
2022-08-22T11:44:57.539Z,18.19
2022-08-22T11:47:28.076Z,18.35
2022-08-22T11:50:13.403Z,18.29
2022-08-22T11:52:40.669Z,18.12
2022-08-22T11:55:12.807Z,18.25
2022-08-22T11:57:44.759Z,18.29
2022-08-22T12:00:15.160Z,18.43
2022-08-22T12:02:45.467Z,18.44
2022-08-22T12:05:19.538Z,18.75
2022-08-22T12:08:11.260Z,18.84
2022-08-22T12:10:43.645Z,18.97
2022-08-22T12:13:20.747Z,18.95
2022-08-22T12:16:01.801Z,19.17
2022-08-22T12:18:35.591Z,19.45
2022-08-22T12:21:14.522Z,19.69
2022-08-22T12:23:48.905Z,19.84
2022-08-22T12:26:28.628Z,19.70
2022-08-22T12:29:04.643Z,19.54
2022-08-22T12:32:01.020Z,19.53
2022-08-22T12:34:47.494Z,19.40
2022-08-22T12:37:26.233Z,19.27
2022-08-22T12:40:09.050Z,19.20
2022-08-22T12:42:39.167Z,19.23
2022-08-22T12:45:24.542Z,18.96
2022-08-22T12:47:55.688Z,18.94
2022-08-22T12:50:26.285Z,19.10
2022-08-22T12:52:52.959Z,19.09
2022-08-22T12:55:19.828Z,18.88
2022-08-22T12:57:57.167Z,19.06
2022-08-22T13:00:34.532Z,19.03
2022-08-22T13:03:09.630Z,19.24
2022-08-22T13:05:40.881Z,19.26
2022-08-22T13:08:10.017Z,19.23
2022-08-22T13:10:36.857Z,19.33
2022-08-22T13:13:11.927Z,19.35
2022-08-22T13:15:53.592Z,19.37
2022-08-22T13:18:29.740Z,19.61
2022-08-22T13:20:58.589Z,19.81
2022-08-22T13:23:30.456Z,19.67
2022-08-22T13:26:32.097Z,19.55
2022-08-22T13:29:24.552Z,19.58
2022-08-22T13:31:51.535Z,19.51
2022-08-22T13:34:30.810Z,19.29
2022-08-22T13:36:58.909Z,19.28
2022-08-22T13:39:28.814Z,19.28
2022-08-22T13:41:56.414Z,19.30
2022-08-22T13:44:29.283Z,19.19
2022-08-22T13:47:16.305Z,18.93
2022-08-22T13:49:44.752Z,19.03
2022-08-22T13:52:29.422Z,18.69
2022-08-22T13:55:01.614Z,18.94
2022-08-22T13:57:31.528Z,18.85
2022-08-22T14:00:28.552Z,18.71
2022-08-22T14:03:08.048Z,18.91
2022-08-22T14:05:37.148Z,19.40
2022-08-22T14:08:18.964Z,20.13
2022-08-22T14:10:55.063Z,19.97
2022-08-22T14:13:24.416Z,19.90
2022-08-22T14:16:15.043Z,19.53
2022-08-22T14:18:45.449Z,19.33
2022-08-22T14:21:33.462Z,19.09
2022-08-22T14:24:13.812Z,19.05
2022-08-22T14:26:47.363Z,18.95
2022-08-22T14:29:16.115Z,18.72
2022-08-22T14:31:43.214Z,18.79
2022-08-22T14:34:12.187Z,18.69
2022-08-22T14:36:55.227Z,18.61
2022-08-22T14:39:42.892Z,18.56
2022-08-22T14:42:22.779Z,18.35
2022-08-22T14:45:08.679Z,18.24
2022-08-22T14:48:29.286Z,18.09
2022-08-22T14:50:43.388Z,17.86
2022-08-22T14:53:11.960Z,17.80
2022-08-22T14:55:39.367Z,17.80
2022-08-22T14:58:08.931Z,17.62
2022-08-22T15:00:35.649Z,17.63
2022-08-22T15:03:09.441Z,17.54
2022-08-22T15:05:49.925Z,17.52
2022-08-22T15:08:21.126Z,17.30
2022-08-22T15:11:04.163Z,17.10
2022-08-22T15:13:31.323Z,17.04
2022-08-22T15:16:03.487Z,16.89
2022-08-22T15:18:35.811Z,16.82
2022-08-22T15:21:06.828Z,16.65
2022-08-22T15:23:44.989Z,16.73
2022-08-22T15:26:33.587Z,16.65
2022-08-22T15:29:07.745Z,16.50
2022-08-22T15:31:34.525Z,16.44
2022-08-22T15:34:08.782Z,16.31
2022-08-22T15:36:36.056Z,16.35
2022-08-22T15:39:21.766Z,16.40
2022-08-22T15:41:48.526Z,16.47
2022-08-22T15:44:32.967Z,16.36
2022-08-22T15:47:01.779Z,16.23
2022-08-22T15:49:29.269Z,16.32
2022-08-22T15:51:58.900Z,16.22
2022-08-22T15:54:26.696Z,16.14
2022-08-22T15:57:10.449Z,16.13
2022-08-22T15:59:54.306Z,16.04
2022-08-22T16:02:36.237Z,16.13
2022-08-22T16:05:09.552Z,16.03
2022-08-22T16:07:40.524Z,15.96
2022-08-22T16:10:08.894Z,15.99
2022-08-22T16:12:43.383Z,16.00
2022-08-22T16:15:28.789Z,15.94
2022-08-22T16:17:57.456Z,16.05
2022-08-22T16:20:24.469Z,15.95
2022-08-22T16:22:56.944Z,15.87
2022-08-22T16:25:42.327Z,15.98
2022-08-22T16:28:19.748Z,15.84
2022-08-22T16:30:52.352Z,15.79
2022-08-22T16:33:32.002Z,15.72
2022-08-22T16:36:15.299Z,15.79
2022-08-22T16:38:44.041Z,15.86
2022-08-22T16:41:45.716Z,15.76
2022-08-22T16:47:36.739Z,15.58
2022-08-22T16:50:06.567Z,15.58
2022-08-22T16:52:40.391Z,15.59
2022-08-22T16:55:27.011Z,15.56
2022-08-22T16:58:05.999Z,15.48
2022-08-22T17:00:36.498Z,15.55
2022-08-22T17:03:21.653Z,15.38
2022-08-22T17:05:55.197Z,15.38
2022-08-22T17:08:25.011Z,15.37
2022-08-22T17:10:57.668Z,15.43
2022-08-22T17:13:32.872Z,15.42
2022-08-22T17:16:18.646Z,15.47
2022-08-22T17:18:45.431Z,15.53
2022-08-22T17:21:15.487Z,15.50
2022-08-22T17:23:42.267Z,15.42
2022-08-22T17:26:27.920Z,15.42
2022-08-22T17:29:06.757Z,15.39
2022-08-22T17:31:43.235Z,15.33
2022-08-22T17:34:18.668Z,15.34
2022-08-22T17:36:55.192Z,15.31
2022-08-22T17:39:56.035Z,15.41
2022-08-22T17:42:41.502Z,15.46
2022-08-22T17:45:10.955Z,15.51
2022-08-22T17:47:43.416Z,15.58
2022-08-22T17:50:13.094Z,15.45
2022-08-22T17:53:02.335Z,15.53
2022-08-22T17:55:31.402Z,15.42
2022-08-22T17:58:01.261Z,15.39
2022-08-22T18:00:30.776Z,15.46
2022-08-22T18:03:20.788Z,15.47
2022-08-22T18:05:47.533Z,15.42
2022-08-22T18:11:21.116Z,15.41
2022-08-22T18:14:06.126Z,15.39
2022-08-22T18:16:35.021Z,15.43
2022-08-22T18:19:04.668Z,15.45
2022-08-22T18:21:33.658Z,15.53
2022-08-22T18:24:09.465Z,15.39
2022-08-22T18:26:36.181Z,15.40
2022-08-22T18:29:17.455Z,15.37
2022-08-22T18:31:50.240Z,15.28
2022-08-22T18:34:25.447Z,15.23
2022-08-22T18:36:59.599Z,15.21
2022-08-22T18:39:30.677Z,15.25
2022-08-22T18:42:00.611Z,15.30
2022-08-22T18:44:29.419Z,15.33
2022-08-22T18:46:56.774Z,15.31
2022-08-22T18:49:23.491Z,15.17
2022-08-22T18:52:12.821Z,15.14
2022-08-22T18:54:42.380Z,15.21
2022-08-22T18:57:24.354Z,15.23
2022-08-22T19:00:17.303Z,15.22
2022-08-22T19:02:55.693Z,15.27
2022-08-22T19:05:25.709Z,15.26
2022-08-22T19:07:56.430Z,15.25
2022-08-22T19:10:35.152Z,15.28
2022-08-22T19:13:10.447Z,15.18
2022-08-22T19:15:56.047Z,15.27
2022-08-22T19:18:26.086Z,15.29
2022-08-22T19:21:30.458Z,15.29
2022-08-22T19:23:57.194Z,15.24
2022-08-22T19:26:34.870Z,15.27
2022-08-22T19:29:08.794Z,15.36
2022-08-22T19:31:42.142Z,15.33
2022-08-22T19:34:18.894Z,15.33
2022-08-22T19:36:46.535Z,15.44
2022-08-22T19:39:31.949Z,15.36
2022-08-22T19:41:59.660Z,15.31
2022-08-22T19:44:26.275Z,15.33
2022-08-22T19:47:11.897Z,15.38
2022-08-22T19:49:39.708Z,15.33
2022-08-22T19:52:15.561Z,15.28
2022-08-22T19:54:57.406Z,15.41
2022-08-22T19:57:46.312Z,15.38
2022-08-22T20:00:14.668Z,15.38
2022-08-22T20:02:50.506Z,15.33
2022-08-22T20:05:28.851Z,15.39
2022-08-22T20:08:08.375Z,15.43
2022-08-22T20:10:53.517Z,15.40
2022-08-22T20:13:23.043Z,15.32
2022-08-22T20:16:01.848Z,15.36
2022-08-22T20:19:07.623Z,15.38
2022-08-22T20:21:54.873Z,15.40
2022-08-22T20:24:21.582Z,15.44
2022-08-22T20:27:12.071Z,15.44
2022-08-22T20:29:36.401Z,15.50
2022-08-22T20:32:04.188Z,15.42
2022-08-22T20:34:32.142Z,15.43
2022-08-22T20:37:16.113Z,15.38
2022-08-22T20:39:49.962Z,15.35
2022-08-22T20:42:25.576Z,15.36
2022-08-22T20:44:53.750Z,15.40
2022-08-22T20:47:24.589Z,15.36
2022-08-22T20:49:52.890Z,15.38
2022-08-22T20:52:19.499Z,15.44
2022-08-22T20:54:46.407Z,15.57
2022-08-22T20:57:16.237Z,15.52
2022-08-22T20:59:51.005Z,15.58
2022-08-22T21:02:22.249Z,15.53
2022-08-22T21:04:48.908Z,15.58
2022-08-22T21:07:41.585Z,15.60
2022-08-22T21:10:26.973Z,15.67
2022-08-22T21:13:14.783Z,15.74
2022-08-22T21:16:11.136Z,15.72
2022-08-22T21:18:39.013Z,15.82
2022-08-22T21:21:07.111Z,15.75
2022-08-22T21:23:40.946Z,15.71
2022-08-22T21:26:08.821Z,15.74
2022-08-22T21:28:37.285Z,15.87
2022-08-22T21:31:12.934Z,15.90
2022-08-22T21:33:41.264Z,15.91
2022-08-22T21:36:08.685Z,15.89
2022-08-22T21:38:35.394Z,15.79
2022-08-22T21:41:02.974Z,15.85
2022-08-22T21:43:31.510Z,15.84
2022-08-22T21:45:58.199Z,15.76
2022-08-22T21:48:43.895Z,15.85
2022-08-22T21:51:29.100Z,15.91
2022-08-22T21:54:18.393Z,15.84
2022-08-22T21:56:45.831Z,15.92
2022-08-22T21:59:21.017Z,15.84
2022-08-22T22:01:52.127Z,15.83
2022-08-22T22:04:18.754Z,15.85
2022-08-22T22:06:45.539Z,15.93
2022-08-22T22:09:15.156Z,15.98
2022-08-22T22:11:42.047Z,15.90
2022-08-22T22:14:08.928Z,15.87
2022-08-22T22:16:35.798Z,15.89
2022-08-22T22:19:02.486Z,15.88
2022-08-22T22:21:29.408Z,15.86
2022-08-22T22:23:58.429Z,15.87
2022-08-22T22:26:25.765Z,15.86
2022-08-22T22:28:53.036Z,15.87
2022-08-22T22:31:19.677Z,15.84
2022-08-22T22:33:46.351Z,15.79
2022-08-22T22:36:14.810Z,15.76
2022-08-22T22:38:41.766Z,15.71
2022-08-22T22:41:08.622Z,15.84
2022-08-22T22:43:35.260Z,15.76
2022-08-22T22:46:01.963Z,15.79
2022-08-22T22:48:29.258Z,15.81
2022-08-22T22:50:56.107Z,15.86
2022-08-22T22:53:37.987Z,15.77
2022-08-22T22:56:06.030Z,15.71
2022-08-22T22:58:35.447Z,15.70
2022-08-22T23:01:13.019Z,15.71
2022-08-22T23:03:39.881Z,15.67
2022-08-22T23:06:13.704Z,15.67
2022-08-22T23:08:40.484Z,15.69
2022-08-22T23:11:10.266Z,15.69
2022-08-22T23:13:37.318Z,15.65
2022-08-22T23:16:07.699Z,15.70
2022-08-22T23:18:34.517Z,15.63
2022-08-22T23:21:11.141Z,15.64
2022-08-22T23:23:37.804Z,15.58
2022-08-22T23:26:04.477Z,15.61
2022-08-22T23:28:31.253Z,15.53
2022-08-22T23:31:08.274Z,15.54
2022-08-22T23:33:35.364Z,15.51
2022-08-22T23:36:02.046Z,15.49
2022-08-22T23:38:28.704Z,15.48
2022-08-22T23:40:55.398Z,15.54
2022-08-22T23:43:22.195Z,15.56
2022-08-22T23:45:48.810Z,15.59
2022-08-22T23:48:15.495Z,15.63
2022-08-22T23:50:42.131Z,15.58
2022-08-22T23:53:08.857Z,15.46
2022-08-22T23:55:36.153Z,15.52
2022-08-22T23:58:02.874Z,15.45
